Time;durP1;ratioP1;P1;durP2;ratioP2;P2;SDS_P1;SDS_P2;PMS_P1;PMS_P2;Temp;Humidity;BMP_temperature;BMP_pressure;BME280_temperature;BME280_humidity;BME280_pressure;Samples;Min_cycle;Max_cycle;Signal;HPM_P1;HPM_P2
2023/01/21 00:00:33;;;;;;;40.30;25.50;;;-1.50;99.90;;;;;;5073367;28;20842;-73
2023/01/21 00:02:59;;;;;;;33.17;23.67;;;-1.60;99.90;;;;;;5067094;28;20473;-71
2023/01/21 00:05:26;;;;;;;35.30;25.17;;;-1.50;99.90;;;;;;5070385;28;20458;-73
2023/01/21 00:07:54;;;;;;;39.43;24.20;;;-1.50;99.90;;;;;;5069715;28;20664;-71
2023/01/21 00:10:21;;;;;;;32.90;23.50;;;-1.60;99.90;;;;;;5063495;28;20503;-71
2023/01/21 00:12:48;;;;;;;36.63;22.50;;;-1.60;99.90;;;;;;5072294;28;20517;-74
2023/01/21 00:15:15;;;;;;;37.30;25.20;;;-1.60;99.90;;;;;;5066733;28;20470;-72
2023/01/21 00:17:42;;;;;;;42.17;26.07;;;-1.70;99.90;;;;;;5063468;28;20887;-71
2023/01/21 00:20:11;;;;;;;37.00;24.67;;;-1.70;99.90;;;;;;5073465;28;20527;-71
2023/01/21 00:22:38;;;;;;;43.30;27.07;;;-1.60;99.90;;;;;;5084361;28;20493;-72
2023/01/21 00:25:08;;;;;;;36.00;25.30;;;-1.60;99.90;;;;;;5070555;28;20860;-71
2023/01/21 00:27:34;;;;;;;41.30;25.83;;;-1.60;99.90;;;;;;5068746;28;20462;-71
2023/01/21 00:30:01;;;;;;;42.20;27.80;;;-1.60;99.90;;;;;;5073932;28;20470;-73
2023/01/21 00:32:28;;;;;;;42.93;26.30;;;-1.60;99.90;;;;;;5071387;28;20485;-73
2023/01/21 00:34:55;;;;;;;43.77;26.77;;;-1.60;99.90;;;;;;5079384;28;20463;-71
2023/01/21 00:37:23;;;;;;;45.80;24.80;;;-1.50;99.90;;;;;;5073162;28;20470;-71
2023/01/21 00:39:50;;;;;;;43.53;27.20;;;-1.50;99.90;;;;;;5071301;28;20880;-72
2023/01/21 00:42:19;;;;;;;44.37;26.90;;;-1.50;99.90;;;;;;5066947;28;20469;-71
2023/01/21 00:44:46;;;;;;;42.40;27.83;;;-1.50;99.90;;;;;;5077403;28;20473;-70
2023/01/21 00:47:13;;;;;;;50.73;28.80;;;-1.50;99.90;;;;;;5076303;28;20466;-73
2023/01/21 00:49:40;;;;;;;44.37;28.83;;;-1.40;99.90;;;;;;5073741;28;20492;-72
2023/01/21 00:52:07;;;;;;;53.77;29.10;;;-1.40;99.90;;;;;;5072529;28;20489;-73
2023/01/21 00:54:34;;;;;;;49.63;28.93;;;-1.40;99.90;;;;;;5077027;28;20465;-71
2023/01/21 00:57:01;;;;;;;46.90;30.00;;;-1.40;99.90;;;;;;5071471;28;20453;-73
2023/01/21 00:59:29;;;;;;;45.90;30.40;;;-1.40;99.90;;;;;;5071129;28;20480;-73
2023/01/21 01:01:56;;;;;;;59.10;30.43;;;-1.40;99.90;;;;;;5069591;28;20470;-73
2023/01/21 01:04:23;;;;;;;46.43;28.70;;;-1.40;99.90;;;;;;5076549;28;20450;-70
2023/01/21 01:06:51;;;;;;;47.20;27.80;;;-1.40;99.90;;;;;;5069412;28;20464;-71
2023/01/21 01:09:18;;;;;;;46.53;27.40;;;-1.40;99.90;;;;;;5072159;28;20493;-72
2023/01/21 01:11:45;;;;;;;48.33;27.47;;;-1.40;99.90;;;;;;5066659;28;20488;-70
2023/01/21 01:14:11;;;;;;;50.90;26.00;;;-1.50;99.90;;;;;;5076569;28;20752;-72
2023/01/21 01:16:40;;;;;;;45.30;26.43;;;-1.50;99.90;;;;;;5074237;28;20465;-70
2023/01/21 01:19:07;;;;;;;49.50;28.10;;;-1.40;99.90;;;;;;5073028;28;20562;-71
2023/01/21 01:21:33;;;;;;;48.20;29.10;;;-1.40;99.90;;;;;;5072476;28;20641;-71
2023/01/21 01:24:02;;;;;;;48.23;28.50;;;-1.40;99.90;;;;;;5079011;28;20461;-72
2023/01/21 01:26:29;;;;;;;51.43;28.10;;;-1.40;99.90;;;;;;5069619;28;20459;-71
2023/01/21 01:28:56;;;;;;;51.90;26.73;;;-1.40;99.90;;;;;;5070732;28;20466;-71
2023/01/21 01:31:23;;;;;;;50.30;29.67;;;-1.40;99.90;;;;;;5074154;28;20465;-72
2023/01/21 01:33:51;;;;;;;51.70;28.50;;;-1.40;99.90;;;;;;5069205;28;20501;-72
2023/01/21 01:36:22;;;;;;;50.70;30.80;;;-1.40;99.90;;;;;;5073807;28;20477;-71
2023/01/21 01:38:49;;;;;;;47.47;28.17;;;-1.50;99.90;;;;;;5071098;28;21020;-71
2023/01/21 01:41:18;;;;;;;49.93;30.00;;;-1.50;99.90;;;;;;5073416;28;20454;-71
2023/01/21 01:43:55;;;;;;;65.93;31.03;;;-1.50;99.90;;;;;;5066370;28;22813;-72
2023/01/21 01:46:23;;;;;;;48.17;27.40;;;-1.50;99.90;;;;;;5069396;28;20965;-74
2023/01/21 01:48:59;;;;;;;56.50;30.70;;;-1.50;99.90;;;;;;5068118;28;20486;-71
2023/01/21 01:51:31;;;;;;;46.30;29.83;;;-1.50;99.90;;;;;;5070039;28;20467;-71
2023/01/21 01:53:58;;;;;;;43.90;26.50;;;-1.60;99.90;;;;;;5075902;28;20516;-72
2023/01/21 01:56:25;;;;;;;53.47;26.57;;;-1.60;99.90;;;;;;5077746;28;20469;-71
2023/01/21 01:58:53;;;;;;;48.30;31.60;;;-1.60;99.90;;;;;;5063063;28;20470;-71
2023/01/21 02:01:20;;;;;;;45.97;26.37;;;-1.60;99.90;;;;;;5067473;28;20463;-72
2023/01/21 02:03:53;;;;;;;47.23;26.23;;;-1.60;99.90;;;;;;5068616;28;20463;-72
2023/01/21 02:06:21;;;;;;;47.60;28.70;;;-1.70;99.90;;;;;;5070887;28;20553;-70
2023/01/21 02:08:48;;;;;;;48.77;27.30;;;-1.70;99.90;;;;;;5071924;28;20528;-70
2023/01/21 02:11:16;;;;;;;38.37;24.17;;;-1.70;99.90;;;;;;5069384;28;20467;-73
2023/01/21 02:13:46;;;;;;;52.60;30.97;;;-1.70;99.90;;;;;;5065333;28;20994;-72
2023/01/21 02:16:46;;;;;;;43.33;28.07;;;-1.70;99.90;;;;;;5069346;28;20469;-73
2023/01/21 02:19:42;;;;;;;49.83;28.57;;;-1.70;99.90;;;;;;5061858;28;20580;-71
2023/01/21 02:22:18;;;;;;;49.37;30.03;;;-1.80;99.90;;;;;;5066030;28;20496;-73
2023/01/21 02:25:16;;;;;;;52.40;29.97;;;-1.70;99.90;;;;;;5072186;28;20459;-73
2023/01/21 02:27:50;;;;;;;44.77;26.80;;;-1.70;99.90;;;;;;5075949;28;20470;-72
2023/01/21 02:30:43;;;;;;;44.07;25.47;;;-1.80;99.90;;;;;;5067914;28;20490;-73
2023/01/21 02:33:34;;;;;;;45.70;28.60;;;-1.80;99.90;;;;;;5066485;28;20574;-72
2023/01/21 02:36:22;;;;;;;48.20;28.10;;;-1.80;99.90;;;;;;5069964;28;20516;-73
2023/01/21 02:38:59;;;;;;;51.40;28.97;;;-1.80;99.90;;;;;;5062108;28;20455;-69
2023/01/21 02:41:33;;;;;;;45.03;25.70;;;-1.90;99.90;;;;;;5066730;28;20473;-73
2023/01/21 02:44:10;;;;;;;46.50;27.57;;;-1.90;99.90;;;;;;5069028;28;20533;-73
2023/01/21 02:46:43;;;;;;;50.60;30.80;;;-1.90;99.90;;;;;;5077508;28;20470;-74
2023/01/21 02:49:15;;;;;;;50.90;28.10;;;-1.90;99.90;;;;;;5070932;28;20485;-70
2023/01/21 02:51:46;;;;;;;46.67;27.63;;;-1.80;99.90;;;;;;5072357;28;20602;-71
2023/01/21 02:54:15;;;;;;;49.43;29.23;;;-1.80;99.90;;;;;;5071305;28;20633;-73
2023/01/21 02:56:44;;;;;;;48.10;26.73;;;-1.90;99.90;;;;;;5074215;28;20469;-71
2023/01/21 02:59:11;;;;;;;56.53;31.00;;;-1.90;99.90;;;;;;5072677;28;20465;-73
2023/01/21 03:01:49;;;;;;;46.53;27.23;;;-2.00;99.90;;;;;;5067663;28;20459;-70
2023/01/21 03:04:52;;;;;;;50.97;27.90;;;-2.00;99.90;;;;;;5072320;28;20892;-69
2023/01/21 03:07:27;;;;;;;49.37;27.80;;;-2.00;99.90;;;;;;5069871;28;20458;-72
2023/01/21 03:09:58;;;;;;;49.17;26.83;;;-2.00;99.90;;;;;;5066981;28;20849;-70
2023/01/21 03:12:30;;;;;;;51.60;29.50;;;-2.00;99.90;;;;;;5068656;28;20484;-74
2023/01/21 03:17:54;;;;;;;47.53;28.80;;;-2.00;99.90;;;;;;5066098;28;20478;-71
2023/01/21 03:20:25;;;;;;;45.00;26.90;;;-2.00;99.90;;;;;;5065745;28;20636;-70
2023/01/21 03:22:57;;;;;;;51.57;28.00;;;-2.00;99.90;;;;;;5066576;28;20458;-71
2023/01/21 03:25:26;;;;;;;44.67;25.90;;;-2.00;99.90;;;;;;5067824;28;20462;-70
2023/01/21 03:27:54;;;;;;;51.13;28.50;;;-2.00;99.90;;;;;;5069439;28;20477;-74
2023/01/21 03:30:24;;;;;;;42.13;26.73;;;-2.00;99.90;;;;;;5072989;28;20469;-72
2023/01/21 03:32:53;;;;;;;59.70;33.80;;;-2.00;99.90;;;;;;5068023;28;20494;-73
2023/01/21 03:35:26;;;;;;;53.30;28.70;;;-2.00;99.90;;;;;;5067800;28;20458;-71
2023/01/21 03:37:58;;;;;;;62.93;31.77;;;-2.00;99.90;;;;;;5071374;28;20478;-74
2023/01/21 03:40:28;;;;;;;43.80;27.90;;;-2.00;99.90;;;;;;5070526;28;20502;-74
2023/01/21 03:42:55;;;;;;;47.50;27.47;;;-2.00;99.90;;;;;;5069903;28;20462;-70
2023/01/21 03:45:32;;;;;;;55.93;30.00;;;-2.00;99.90;;;;;;5065112;28;20558;-73
2023/01/21 03:48:05;;;;;;;49.47;27.87;;;-2.00;99.90;;;;;;5064119;28;20961;-73
2023/01/21 03:50:37;;;;;;;48.47;26.80;;;-2.00;99.90;;;;;;5066331;28;20723;-72
2023/01/21 03:53:05;;;;;;;49.63;28.40;;;-2.10;99.90;;;;;;5071655;28;21305;-75
2023/01/21 03:55:34;;;;;;;48.97;25.97;;;-2.10;99.90;;;;;;5070861;28;20596;-75
2023/01/21 03:58:01;;;;;;;42.07;22.13;;;-2.10;99.90;;;;;;5073370;28;20466;-70
2023/01/21 04:00:28;;;;;;;57.97;31.03;;;-2.10;99.90;;;;;;5065267;28;20471;-71
2023/01/21 04:02:55;;;;;;;57.60;30.40;;;-2.10;99.90;;;;;;5060418;28;20952;-73
2023/01/21 04:05:22;;;;;;;47.10;29.30;;;-2.10;99.90;;;;;;5062699;28;20465;-74
2023/01/21 04:07:50;;;;;;;49.60;28.93;;;-2.10;99.90;;;;;;5068492;28;20972;-73
2023/01/21 04:10:17;;;;;;;50.43;26.07;;;-2.10;99.90;;;;;;5063641;28;20516;-74
2023/01/21 04:12:44;;;;;;;50.73;28.30;;;-2.10;99.90;;;;;;5068754;28;21083;-73
2023/01/21 04:15:12;;;;;;;57.57;27.60;;;-2.20;99.90;;;;;;5066815;28;20904;-73
2023/01/21 04:17:40;;;;;;;57.80;29.57;;;-2.20;99.90;;;;;;5073467;28;20523;-71
2023/01/21 04:20:08;;;;;;;56.53;29.90;;;-2.30;99.90;;;;;;5063577;28;20980;-72
2023/01/21 04:22:35;;;;;;;67.03;31.10;;;-2.30;99.90;;;;;;5069731;28;20453;-71
2023/01/21 04:25:04;;;;;;;56.03;30.17;;;-2.30;99.90;;;;;;5071704;28;20947;-72
2023/01/21 04:27:31;;;;;;;59.03;30.40;;;-2.30;99.90;;;;;;5074548;28;20458;-72
2023/01/21 04:29:58;;;;;;;48.17;29.10;;;-2.40;99.90;;;;;;5074417;28;20994;-72
2023/01/21 04:32:24;;;;;;;54.13;29.60;;;-2.40;99.90;;;;;;5070043;28;20465;-70
2023/01/21 04:34:51;;;;;;;50.30;29.57;;;-2.40;99.90;;;;;;5079468;28;20488;-71
2023/01/21 04:37:18;;;;;;;56.80;28.40;;;-2.50;99.90;;;;;;5071491;28;20504;-73
2023/01/21 04:39:45;;;;;;;57.00;30.00;;;-2.50;99.90;;;;;;5073437;28;20496;-74
2023/01/21 04:42:14;;;;;;;51.90;30.13;;;-2.50;99.90;;;;;;5070603;28;20474;-71
2023/01/21 04:44:41;;;;;;;52.33;27.47;;;-2.60;99.90;;;;;;5067331;28;20465;-72
2023/01/21 04:47:09;;;;;;;55.57;30.00;;;-2.70;99.90;;;;;;5074608;28;20505;-74
2023/01/21 04:49:35;;;;;;;55.40;28.33;;;-2.70;99.90;;;;;;5073624;28;20514;-72
2023/01/21 04:52:02;;;;;;;54.43;30.27;;;-2.70;99.90;;;;;;5072672;28;20956;-71
2023/01/21 04:54:29;;;;;;;53.13;30.00;;;-2.80;99.90;;;;;;5076427;28;20489;-71
2023/01/21 04:56:57;;;;;;;50.37;28.13;;;-2.90;99.90;;;;;;5078022;28;20484;-71
2023/01/21 04:59:26;;;;;;;60.47;28.37;;;-3.00;99.90;;;;;;5083651;28;20465;-74
2023/01/21 05:01:53;;;;;;;49.13;29.07;;;-3.00;99.90;;;;;;5065398;28;21157;-69
2023/01/21 05:04:20;;;;;;;47.40;27.33;;;-3.00;99.90;;;;;;5070886;28;20473;-73
2023/01/21 05:06:47;;;;;;;46.03;28.83;;;-2.90;99.90;;;;;;5068195;28;20480;-73
2023/01/21 05:09:15;;;;;;;50.00;28.20;;;-2.90;99.90;;;;;;5061379;28;20952;-73
2023/01/21 05:11:41;;;;;;;49.27;29.80;;;-2.90;99.90;;;;;;5074780;28;20476;-72
2023/01/21 05:14:08;;;;;;;60.57;28.50;;;-2.90;99.90;;;;;;5065574;28;20864;-70
2023/01/21 05:16:37;;;;;;;43.07;28.30;;;-3.00;99.90;;;;;;5070646;28;20469;-73
2023/01/21 05:19:03;;;;;;;52.93;26.30;;;-3.10;99.90;;;;;;5069591;28;20751;-70
2023/01/21 05:21:30;;;;;;;49.50;27.00;;;-3.10;99.90;;;;;;5067651;28;20455;-72
2023/01/21 05:23:57;;;;;;;41.83;25.10;;;-3.20;99.90;;;;;;5080438;28;20469;-72
2023/01/21 05:26:23;;;;;;;51.17;28.60;;;-3.30;99.90;;;;;;5078746;28;20462;-70
2023/01/21 05:28:51;;;;;;;46.30;27.37;;;-3.30;99.90;;;;;;5071368;28;20462;-74
2023/01/21 05:31:18;;;;;;;46.90;27.90;;;-3.20;99.90;;;;;;5068257;28;20468;-72
2023/01/21 05:33:46;;;;;;;48.00;28.83;;;-3.10;99.90;;;;;;5069411;28;20503;-72
2023/01/21 05:36:13;;;;;;;59.47;29.13;;;-3.00;99.90;;;;;;5068116;28;20938;-73
2023/01/21 05:38:40;;;;;;;54.60;30.50;;;-2.90;99.90;;;;;;5078472;28;20462;-72
2023/01/21 05:41:07;;;;;;;44.13;26.83;;;-2.80;99.90;;;;;;5074049;28;20494;-70
2023/01/21 05:43:34;;;;;;;51.50;27.43;;;-2.80;99.90;;;;;;5069067;28;20462;-70
2023/01/21 05:46:01;;;;;;;46.53;27.60;;;-2.80;99.90;;;;;;5069036;28;20479;-73
2023/01/21 05:48:29;;;;;;;58.57;29.33;;;-2.70;99.90;;;;;;5065309;28;20463;-72
2023/01/21 05:50:57;;;;;;;48.53;27.90;;;-2.60;99.90;;;;;;5067169;28;20475;-73
2023/01/21 05:53:24;;;;;;;49.43;29.43;;;-2.60;99.90;;;;;;5079934;28;20486;-72
2023/01/21 05:55:52;;;;;;;53.77;29.60;;;-2.60;99.90;;;;;;5068578;28;20456;-72
2023/01/21 05:58:19;;;;;;;47.70;25.17;;;-2.60;99.90;;;;;;5071058;28;20494;-71
2023/01/21 06:00:47;;;;;;;49.17;29.17;;;-2.60;99.90;;;;;;5065637;28;20462;-73
2023/01/21 06:03:14;;;;;;;48.47;28.83;;;-2.60;99.90;;;;;;5071367;28;20718;-73
2023/01/21 06:05:41;;;;;;;63.00;31.33;;;-2.60;99.90;;;;;;5077149;28;20544;-73
2023/01/21 06:08:10;;;;;;;58.50;31.30;;;-2.50;99.90;;;;;;5072585;28;20472;-73
2023/01/21 06:10:37;;;;;;;36.70;21.60;;;-2.60;99.90;;;;;;5071366;28;20983;-71
2023/01/21 06:13:04;;;;;;;51.20;28.33;;;-2.60;99.90;;;;;;5069507;28;21096;-71
2023/01/21 06:15:32;;;;;;;50.73;29.33;;;-2.60;99.90;;;;;;5070101;28;20471;-71
2023/01/21 06:18:00;;;;;;;44.80;25.30;;;-2.60;99.90;;;;;;5067430;28;20948;-74
2023/01/21 06:20:29;;;;;;;53.47;27.27;;;-2.60;99.90;;;;;;5068470;28;20544;-72
2023/01/21 06:22:55;;;;;;;49.73;29.47;;;-2.60;99.90;;;;;;5070295;28;20559;-70
2023/01/21 06:25:24;;;;;;;41.43;25.30;;;-2.60;99.90;;;;;;5073025;28;20822;-72
2023/01/21 06:27:53;;;;;;;49.47;25.43;;;-2.60;99.90;;;;;;5070396;28;20515;-74
2023/01/21 06:30:21;;;;;;;53.17;28.20;;;-2.60;99.90;;;;;;5067652;28;20991;-74
2023/01/21 06:32:48;;;;;;;57.30;29.20;;;-2.70;99.90;;;;;;5064402;28;20489;-72
2023/01/21 06:35:15;;;;;;;51.50;27.80;;;-2.70;99.90;;;;;;5064825;28;20836;-69
2023/01/21 06:37:42;;;;;;;49.83;28.23;;;-2.70;99.90;;;;;;5071176;28;20470;-73
2023/01/21 06:40:10;;;;;;;48.90;26.23;;;-2.70;99.90;;;;;;5075429;28;20487;-72
2023/01/21 06:42:38;;;;;;;58.37;30.10;;;-2.70;99.90;;;;;;5063317;28;20458;-73
2023/01/21 06:45:06;;;;;;;49.37;26.33;;;-2.80;99.90;;;;;;5062769;28;20453;-72
2023/01/21 06:47:33;;;;;;;48.70;29.17;;;-2.80;99.90;;;;;;5069212;28;20876;-72
2023/01/21 06:50:00;;;;;;;52.10;29.30;;;-2.80;99.90;;;;;;5068763;28;20551;-74
2023/01/21 06:52:27;;;;;;;53.77;28.77;;;-2.80;99.90;;;;;;5066219;28;21069;-71
2023/01/21 06:54:54;;;;;;;58.67;28.93;;;-2.80;99.90;;;;;;5068283;28;21112;-70
2023/01/21 06:57:20;;;;;;;56.90;29.37;;;-2.90;99.90;;;;;;5067174;28;20945;-72
2023/01/21 06:59:48;;;;;;;59.07;31.30;;;-2.80;99.90;;;;;;5067102;28;20502;-72
2023/01/21 07:02:15;;;;;;;47.13;28.73;;;-2.90;99.90;;;;;;5069387;28;20470;-70
2023/01/21 07:04:43;;;;;;;56.73;28.00;;;-2.80;99.90;;;;;;5067361;28;20459;-71
2023/01/21 07:07:11;;;;;;;59.40;28.17;;;-2.80;99.90;;;;;;5070153;28;20459;-74
2023/01/21 07:09:38;;;;;;;55.97;29.27;;;-2.80;99.90;;;;;;5065697;28;20467;-72
2023/01/21 07:12:05;;;;;;;59.10;31.60;;;-2.80;99.90;;;;;;5064236;28;20467;-72
2023/01/21 07:14:32;;;;;;;50.50;28.27;;;-2.80;99.90;;;;;;5068104;28;20509;-71
2023/01/21 07:17:00;;;;;;;48.43;25.67;;;-2.80;99.90;;;;;;5071234;28;20462;-70
2023/01/21 07:19:27;;;;;;;52.80;30.30;;;-2.80;99.90;;;;;;5069836;28;20892;-72
2023/01/21 07:21:54;;;;;;;51.07;28.00;;;-2.80;99.90;;;;;;5069909;28;20460;-70
2023/01/21 07:24:21;;;;;;;51.27;30.03;;;-2.90;99.90;;;;;;5066110;28;20471;-69
2023/01/21 07:26:48;;;;;;;53.07;29.27;;;-2.80;99.90;;;;;;5065474;28;20466;-71
2023/01/21 07:29:15;;;;;;;54.60;30.00;;;-2.80;99.90;;;;;;5072312;28;20473;-74
2023/01/21 07:31:42;;;;;;;54.47;29.80;;;-2.80;99.90;;;;;;5071378;28;20579;-70
2023/01/21 07:34:10;;;;;;;58.17;30.47;;;-2.90;99.90;;;;;;5068787;28;20601;-70
2023/01/21 07:36:37;;;;;;;50.60;30.80;;;-2.80;99.90;;;;;;5062417;28;21104;-72
2023/01/21 07:39:04;;;;;;;59.17;30.00;;;-2.90;99.90;;;;;;5068499;28;21397;-71
2023/01/21 07:41:30;;;;;;;57.83;30.67;;;-3.00;99.90;;;;;;5068776;28;20819;-72
2023/01/21 07:43:57;;;;;;;60.53;31.23;;;-3.10;99.90;;;;;;5072194;28;20875;-70
2023/01/21 07:46:25;;;;;;;59.03;29.30;;;-3.10;99.90;;;;;;5066396;28;20547;-73
2023/01/21 07:48:53;;;;;;;54.30;30.27;;;-3.10;99.90;;;;;;5068257;28;20489;-71
2023/01/21 07:51:22;;;;;;;50.73;29.10;;;-3.10;99.90;;;;;;5068499;28;20956;-73
2023/01/21 07:53:49;;;;;;;50.23;30.57;;;-3.00;99.90;;;;;;5068269;28;20545;-71
2023/01/21 07:56:16;;;;;;;48.73;29.50;;;-3.00;99.90;;;;;;5075158;28;20466;-73
2023/01/21 07:58:45;;;;;;;46.87;27.80;;;-3.00;99.90;;;;;;5069262;28;20466;-71
2023/01/21 08:01:12;;;;;;;45.00;29.20;;;-3.00;99.90;;;;;;5070168;28;20972;-74
2023/01/21 08:03:40;;;;;;;55.23;29.50;;;-3.10;99.90;;;;;;5069836;28;20470;-73
2023/01/21 08:06:07;;;;;;;56.57;30.93;;;-3.10;99.90;;;;;;5066966;28;20466;-72
2023/01/21 08:08:35;;;;;;;46.37;30.07;;;-3.00;99.90;;;;;;5073401;28;20455;-72
2023/01/21 08:11:02;;;;;;;49.47;29.70;;;-3.00;99.90;;;;;;5068177;28;20821;-74
2023/01/21 08:13:29;;;;;;;53.47;29.93;;;-2.90;99.90;;;;;;5070587;28;20462;-70
2023/01/21 08:15:57;;;;;;;55.97;31.40;;;-2.80;99.90;;;;;;5071009;28;20493;-69
2023/01/21 08:18:25;;;;;;;57.43;31.30;;;-2.80;99.90;;;;;;5072250;28;20458;-73
2023/01/21 08:20:55;;;;;;;60.87;32.17;;;-2.70;99.90;;;;;;5067359;28;20458;-71
2023/01/21 08:23:22;;;;;;;68.53;32.07;;;-2.60;99.90;;;;;;5072731;28;20466;-70
2023/01/21 08:25:50;;;;;;;63.80;33.87;;;-2.50;99.90;;;;;;5073707;28;20476;-72
2023/01/21 08:28:18;;;;;;;61.33;32.33;;;-2.40;99.90;;;;;;5073505;28;20465;-70
2023/01/21 08:30:45;;;;;;;57.57;32.40;;;-2.40;99.90;;;;;;5075148;28;20450;-73
2023/01/21 08:33:13;;;;;;;64.93;33.63;;;-2.30;99.90;;;;;;5071555;28;20459;-71
2023/01/21 08:35:40;;;;;;;64.70;35.57;;;-2.20;99.90;;;;;;5069072;28;20497;-74
2023/01/21 08:38:07;;;;;;;61.80;33.70;;;-2.10;99.90;;;;;;5070068;28;20466;-72
2023/01/21 08:40:34;;;;;;;55.90;32.80;;;-2.10;99.90;;;;;;5072115;28;20883;-74
2023/01/21 08:43:04;;;;;;;64.33;32.73;;;-2.10;99.90;;;;;;5066998;28;20459;-74
2023/01/21 08:45:31;;;;;;;66.80;36.13;;;-2.10;99.90;;;;;;5066033;28;20495;-71
2023/01/21 08:47:59;;;;;;;66.57;33.33;;;-2.10;99.90;;;;;;5069168;28;20950;-71
2023/01/21 08:50:25;;;;;;;67.07;34.90;;;-2.00;99.90;;;;;;5070988;28;20501;-73
2023/01/21 08:52:53;;;;;;;72.03;33.67;;;-1.90;99.90;;;;;;5068960;28;20462;-74
2023/01/21 08:55:20;;;;;;;60.57;34.00;;;-1.80;99.90;;;;;;5069193;28;20865;-72
2023/01/21 08:57:50;;;;;;;70.60;36.13;;;-1.80;99.90;;;;;;5076215;28;20474;-70
2023/01/21 09:00:21;;;;;;;65.20;32.80;;;-1.70;99.90;;;;;;5067468;28;20548;-71
2023/01/21 09:02:47;;;;;;;56.90;33.40;;;-1.70;99.90;;;;;;5065542;28;20474;-74
2023/01/21 09:05:14;;;;;;;60.90;33.67;;;-1.60;99.90;;;;;;5063768;28;20459;-74
2023/01/21 09:07:42;;;;;;;66.73;35.10;;;-1.60;99.90;;;;;;5067502;28;20882;-72
2023/01/21 09:10:09;;;;;;;62.70;34.53;;;-1.60;99.90;;;;;;5067242;28;20466;-72
2023/01/21 09:12:37;;;;;;;55.20;33.07;;;-1.50;99.90;;;;;;5068296;28;20478;-73
2023/01/21 09:15:04;;;;;;;57.87;35.23;;;-1.40;99.90;;;;;;5068840;28;20486;-71
2023/01/21 09:17:33;;;;;;;66.50;34.80;;;-1.30;99.90;;;;;;5068888;28;21233;-71
2023/01/21 09:20:00;;;;;;;72.17;38.40;;;-1.30;99.90;;;;;;5067613;28;20571;-73
2023/01/21 09:22:27;;;;;;;54.20;33.60;;;-1.30;99.90;;;;;;5060192;28;20471;-72
2023/01/21 09:24:54;;;;;;;52.90;30.50;;;-1.30;99.90;;;;;;5066193;28;20466;-74
2023/01/21 09:27:26;;;;;;;72.23;35.73;;;-1.30;99.90;;;;;;5068095;28;20475;-73
2023/01/21 09:29:53;;;;;;;58.63;33.33;;;-1.20;99.90;;;;;;5073079;28;20473;-72
2023/01/21 09:32:20;;;;;;;56.93;34.27;;;-1.10;99.90;;;;;;5071510;28;20453;-72
2023/01/21 09:34:48;;;;;;;60.63;34.77;;;-0.80;99.90;;;;;;5070380;28;20881;-72
2023/01/21 09:37:15;;;;;;;63.97;35.00;;;-0.80;99.90;;;;;;5070828;28;20473;-74
2023/01/21 09:39:41;;;;;;;71.40;39.10;;;-0.70;99.90;;;;;;5072517;28;20489;-69
2023/01/21 09:42:18;;;;;;;80.97;37.50;;;-0.60;99.90;;;;;;5069598;28;20466;-74
2023/01/21 09:44:50;;;;;;;73.23;40.07;;;-0.50;99.90;;;;;;5068530;28;21020;-72
2023/01/21 09:47:22;;;;;;;79.03;39.10;;;-0.40;99.90;;;;;;5064911;28;20878;-72
2023/01/21 09:49:53;;;;;;;64.83;35.30;;;-0.30;99.90;;;;;;5070162;28;20899;-71
2023/01/21 09:52:27;;;;;;;80.53;39.70;;;-0.10;99.90;;;;;;5068970;28;20470;-71
2023/01/21 09:54:54;;;;;;;72.70;42.07;;;0.00;99.90;;;;;;5068003;28;20536;-73
2023/01/21 09:57:44;;;;;;;63.73;35.30;;;0.00;99.90;;;;;;5066343;28;20455;-74
2023/01/21 10:00:27;;;;;;;69.07;38.37;;;-0.10;99.90;;;;;;5071189;28;20451;-71
2023/01/21 10:03:01;;;;;;;80.93;43.33;;;-0.10;99.90;;;;;;5064836;28;20474;-74
2023/01/21 10:05:41;;;;;;;63.23;40.50;;;0.10;99.90;;;;;;5075039;28;20473;-71
2023/01/21 10:08:15;;;;;;;65.37;42.57;;;0.20;99.90;;;;;;5073927;28;20463;-71
2023/01/21 10:10:50;;;;;;;69.73;39.90;;;0.30;99.90;;;;;;5068020;28;20466;-71
2023/01/21 10:13:37;;;;;;;79.60;42.47;;;0.20;99.90;;;;;;5071265;28;20472;-72
2023/01/21 10:16:11;;;;;;;68.77;40.60;;;0.30;99.90;;;;;;5072292;28;20495;-72
2023/01/21 10:18:42;;;;;;;73.97;42.90;;;0.40;99.90;;;;;;5068912;28;20446;-73
2023/01/21 10:21:16;;;;;;;68.23;41.97;;;0.50;99.90;;;;;;5064853;28;20465;-71
2023/01/21 10:23:47;;;;;;;75.60;42.30;;;0.50;99.90;;;;;;5059402;28;20454;-72
2023/01/21 10:26:17;;;;;;;71.23;42.33;;;0.50;99.90;;;;;;5072268;28;20513;-73
2023/01/21 10:28:49;;;;;;;69.97;45.50;;;0.60;99.90;;;;;;5069655;28;20952;-72
2023/01/21 10:31:22;;;;;;;69.53;42.30;;;0.70;99.90;;;;;;5071832;28;20459;-71
2023/01/21 10:33:48;;;;;;;63.83;41.00;;;0.60;99.90;;;;;;5069690;28;20462;-71
2023/01/21 10:36:46;;;;;;;73.13;42.50;;;0.60;99.90;;;;;;5066663;28;20493;-70
2023/01/21 10:39:23;;;;;;;68.77;41.87;;;0.40;99.90;;;;;;5055939;28;20827;-70
2023/01/21 10:42:15;;;;;;;73.47;45.17;;;0.60;99.90;;;;;;5065860;28;21079;-70
2023/01/21 10:44:48;;;;;;;63.80;45.57;;;0.60;99.90;;;;;;5053468;28;20516;-73
2023/01/21 10:47:25;;;;;;;77.53;46.03;;;0.80;99.90;;;;;;5062644;28;20478;-73
2023/01/21 10:50:00;;;;;;;72.30;44.30;;;0.90;99.90;;;;;;5069175;28;20493;-71
2023/01/21 10:52:37;;;;;;;69.57;45.60;;;0.90;99.90;;;;;;5067507;28;20462;-72
2023/01/21 10:55:16;;;;;;;78.97;45.70;;;0.80;99.90;;;;;;5074305;28;20501;-70
2023/01/21 10:57:55;;;;;;;70.03;47.17;;;0.90;99.90;;;;;;5063745;28;20822;-72
2023/01/21 11:00:25;;;;;;;69.50;44.60;;;0.90;99.90;;;;;;5067618;28;20465;-71
2023/01/21 11:02:55;;;;;;;86.37;46.13;;;0.90;99.90;;;;;;5063352;28;20458;-71
2023/01/21 11:05:25;;;;;;;68.67;44.30;;;0.90;99.90;;;;;;5061107;28;20504;-71
2023/01/21 11:07:55;;;;;;;77.30;43.67;;;0.90;99.90;;;;;;5065509;28;20458;-69
2023/01/21 11:10:25;;;;;;;70.83;44.37;;;1.00;99.90;;;;;;5068696;28;20466;-71
2023/01/21 11:12:54;;;;;;;73.77;45.30;;;0.80;99.90;;;;;;5065545;28;20459;-70
2023/01/21 11:15:24;;;;;;;80.73;44.07;;;1.00;99.90;;;;;;5063002;28;20474;-70
2023/01/21 11:17:55;;;;;;;68.13;42.43;;;1.00;99.90;;;;;;5061235;28;20550;-71
2023/01/21 11:20:35;;;;;;;63.40;43.97;;;0.90;99.90;;;;;;5062436;28;20463;-72
2023/01/21 11:23:04;;;;;;;62.77;44.23;;;1.00;99.90;;;;;;5064513;28;20516;-69
2023/01/21 11:25:37;;;;;;;69.93;44.23;;;1.00;99.90;;;;;;5068400;28;20471;-69
2023/01/21 11:28:04;;;;;;;65.67;38.77;;;1.10;99.90;;;;;;5076060;28;20454;-71
2023/01/21 11:30:36;;;;;;;72.73;43.77;;;1.10;99.90;;;;;;5070564;28;20479;-71
2023/01/21 11:33:30;;;;;;;82.57;42.77;;;0.90;99.90;;;;;;5062666;28;20562;-71
2023/01/21 11:36:10;;;;;;;71.73;41.17;;;1.00;99.90;;;;;;5003352;28;20501;-71
2023/01/21 11:38:39;;;;;;;68.20;42.60;;;1.10;99.90;;;;;;5069618;28;20468;-70
2023/01/21 11:41:15;;;;;;;64.27;40.90;;;1.00;99.90;;;;;;5069414;28;20528;-71
2023/01/21 11:43:45;;;;;;;71.37;42.23;;;0.90;99.90;;;;;;5073232;28;20887;-69
2023/01/21 11:46:34;;;;;;;72.47;40.97;;;0.90;99.90;;;;;;5072309;28;20466;-70
2023/01/21 11:49:22;;;;;;;65.40;38.80;;;1.00;99.90;;;;;;5069100;28;20478;-70
2023/01/21 11:51:50;;;;;;;66.20;41.00;;;1.00;99.90;;;;;;5069696;28;20461;-71
2023/01/21 11:54:19;;;;;;;63.80;37.70;;;1.10;99.90;;;;;;5074826;28;20889;-70
2023/01/21 11:56:55;;;;;;;65.40;37.97;;;1.20;99.90;;;;;;5069871;28;20560;-70
2023/01/21 11:59:26;;;;;;;66.97;39.63;;;1.20;99.90;;;;;;5071675;28;20557;-70
2023/01/21 12:01:56;;;;;;;66.40;39.90;;;1.20;99.90;;;;;;5066625;28;20463;-70
2023/01/21 12:04:24;;;;;;;54.07;38.87;;;1.20;99.90;;;;;;5065754;28;20977;-70
2023/01/21 12:06:56;;;;;;;60.70;40.50;;;1.30;99.90;;;;;;5073562;28;20457;-69
2023/01/21 12:09:26;;;;;;;59.13;38.67;;;1.50;99.90;;;;;;5069113;28;20467;-69
2023/01/21 12:12:22;;;;;;;56.70;37.93;;;1.40;99.90;;;;;;5070520;28;20548;-70
2023/01/21 12:14:54;;;;;;;60.80;36.33;;;1.30;99.90;;;;;;5068400;28;20477;-69
2023/01/21 12:17:31;;;;;;;66.43;37.20;;;1.30;99.90;;;;;;5067143;28;20952;-69
2023/01/21 12:20:13;;;;;;;68.60;38.77;;;1.30;99.90;;;;;;5066854;28;20478;-71
2023/01/21 12:23:14;;;;;;;60.13;37.60;;;1.30;99.90;;;;;;5063274;28;20532;-70
2023/01/21 12:25:48;;;;;;;62.70;38.30;;;1.50;99.90;;;;;;5058183;28;20454;-70
2023/01/21 12:28:30;;;;;;;55.30;37.60;;;1.60;99.90;;;;;;5069337;28;20531;-69
2023/01/21 12:31:07;;;;;;;62.03;39.67;;;1.60;99.90;;;;;;5068737;28;20462;-71
2023/01/21 12:33:44;;;;;;;65.20;40.97;;;1.80;99.90;;;;;;5068296;28;20877;-69
2023/01/21 12:36:17;;;;;;;67.60;38.77;;;1.80;99.90;;;;;;5069000;28;20497;-70
2023/01/21 12:38:49;;;;;;;60.90;37.60;;;1.90;99.90;;;;;;5068251;28;20965;-69
2023/01/21 12:41:22;;;;;;;63.23;36.73;;;2.00;99.90;;;;;;5066398;28;20960;-71
2023/01/21 12:43:54;;;;;;;68.83;38.67;;;2.00;99.90;;;;;;5067079;28;20466;-68
2023/01/21 12:46:23;;;;;;;57.93;36.40;;;2.10;99.90;;;;;;5066057;28;20462;-71